createdAt,value
2018-11-27T00:04:14.787Z,87.51
2018-11-27T00:06:43.800Z,86.90
2018-11-27T00:09:13.059Z,87.33
2018-11-27T00:11:42.583Z,87.46
2018-11-27T00:14:11.852Z,87.51
2018-11-27T00:16:40.853Z,87.21
2018-11-27T00:19:10.121Z,87.15
2018-11-27T00:21:39.599Z,87.36
2018-11-27T00:24:08.883Z,87.44
2018-11-27T00:26:38.155Z,87.52
2018-11-27T00:29:07.716Z,87.42
2018-11-27T00:31:36.990Z,87.37
2018-11-27T00:34:05.976Z,87.39
2018-11-27T00:36:35.578Z,87.27
2018-11-27T00:39:04.053Z,87.21
2018-11-27T00:41:33.645Z,87.16
2018-11-27T00:44:04.002Z,86.89
2018-11-27T00:46:33.588Z,87.29
2018-11-27T00:49:03.676Z,87.15
2018-11-27T00:51:32.952Z,87.10
2018-11-27T00:54:03.569Z,87.16
2018-11-27T00:56:32.835Z,87.38
2018-11-27T00:59:02.107Z,87.42
2018-11-27T01:01:31.670Z,87.27
2018-11-27T01:04:01.016Z,87.45
2018-11-27T01:06:30.583Z,87.92
2018-11-27T01:08:59.851Z,87.35
2018-11-27T01:11:29.117Z,87.51
2018-11-27T01:13:58.735Z,87.49
2018-11-27T01:16:27.990Z,88.05
2018-11-27T01:18:57.569Z,87.82
2018-11-27T01:21:26.830Z,87.86
2018-11-27T01:23:56.097Z,87.78
2018-11-27T01:26:25.732Z,87.98
2018-11-27T01:28:55.008Z,88.08
2018-11-27T01:31:24.222Z,87.82
2018-11-27T01:33:53.768Z,87.77
2018-11-27T01:36:23.039Z,87.56
2018-11-27T01:38:52.605Z,87.91
2018-11-27T01:41:21.875Z,88.16
2018-11-27T01:43:51.131Z,88.06
2018-11-27T01:46:20.703Z,87.55
2018-11-27T01:48:49.968Z,87.96
2018-11-27T01:51:19.247Z,87.83
2018-11-27T01:53:48.765Z,87.88
2018-11-27T01:56:18.318Z,87.75
2018-11-27T01:58:47.884Z,88.07
2018-11-27T02:01:16.816Z,88.04
2018-11-27T02:03:46.100Z,88.33
2018-11-27T02:06:15.662Z,88.64
2018-11-27T02:08:44.944Z,88.71
2018-11-27T02:11:14.204Z,88.37
2018-11-27T02:13:43.766Z,87.86
2018-11-27T02:16:13.374Z,88.45
2018-11-27T02:18:42.826Z,88.40
2018-11-27T02:21:12.091Z,88.19
2018-11-27T02:23:41.370Z,87.92
2018-11-27T02:26:10.924Z,87.91
2018-11-27T02:28:40.207Z,88.12
2018-11-27T02:31:09.771Z,88.28
2018-11-27T02:33:39.043Z,88.32
2018-11-27T02:36:08.312Z,88.54
2018-11-27T02:38:37.865Z,88.43
2018-11-27T02:41:07.890Z,88.79
2018-11-27T02:43:37.171Z,89.00
2018-11-27T02:46:06.731Z,89.06
2018-11-27T02:48:36.029Z,89.08
2018-11-27T02:51:04.720Z,88.92
2018-11-27T02:53:51.258Z,88.69
2018-11-27T02:56:21.117Z,88.98
2018-11-27T02:58:50.398Z,89.03
2018-11-27T03:01:19.395Z,89.04
2018-11-27T03:03:49.065Z,89.37
2018-11-27T03:06:17.959Z,89.39
2018-11-27T03:08:47.233Z,89.31
2018-11-27T03:11:16.504Z,89.71
2018-11-27T03:13:46.096Z,89.57
2018-11-27T03:16:15.881Z,89.46
2018-11-27T03:18:46.316Z,89.70
2018-11-27T03:21:16.055Z,89.84
2018-11-27T03:23:45.327Z,89.97
2018-11-27T03:26:14.648Z,90.35
2018-11-27T03:28:44.172Z,90.31
2018-11-27T03:31:13.912Z,89.96
2018-11-27T03:33:43.199Z,89.55
2018-11-27T03:36:12.644Z,90.01
2018-11-27T03:38:42.179Z,89.73
2018-11-27T03:41:11.469Z,89.89
2018-11-27T03:43:41.042Z,89.53
2018-11-27T03:46:10.484Z,89.18
2018-11-27T03:48:40.035Z,89.74
2018-11-27T03:51:08.970Z,89.51
2018-11-27T03:53:38.039Z,90.19
2018-11-27T03:56:07.376Z,89.76
2018-11-27T03:58:36.646Z,89.69
2018-11-27T04:01:05.882Z,89.87
2018-11-27T04:03:35.154Z,89.62
2018-11-27T04:06:04.115Z,89.62
2018-11-27T04:08:33.375Z,89.53
2018-11-27T04:11:03.769Z,89.11
2018-11-27T04:13:38.371Z,89.72
2018-11-27T04:16:07.936Z,89.84
2018-11-27T04:18:37.387Z,89.73
2018-11-27T04:21:06.673Z,89.42
2018-11-27T04:23:36.239Z,89.41
2018-11-27T04:26:05.459Z,89.94
2018-11-27T04:28:34.692Z,89.67
2018-11-27T04:31:04.265Z,90.06
2018-11-27T04:33:33.306Z,89.68
2018-11-27T04:36:02.306Z,89.36
2018-11-27T04:38:31.567Z,89.49
2018-11-27T04:41:01.140Z,89.34
2018-11-27T04:43:30.209Z,89.51
2018-11-27T04:45:59.571Z,90.03
2018-11-27T04:48:29.149Z,89.84
2018-11-27T04:50:58.449Z,89.72
2018-11-27T04:53:27.708Z,90.20
2018-11-27T04:55:57.345Z,90.08
2018-11-27T04:58:26.613Z,90.15
2018-11-27T05:00:55.971Z,90.93
2018-11-27T05:03:25.355Z,90.59
2018-11-27T05:05:54.630Z,90.64
2018-11-27T05:08:24.204Z,91.18
2018-11-27T05:10:53.484Z,91.01
2018-11-27T05:13:22.759Z,90.99
2018-11-27T05:15:52.211Z,90.87
2018-11-27T05:18:21.482Z,91.59
2018-11-27T05:20:50.422Z,91.27
2018-11-27T05:23:19.683Z,91.16
2018-11-27T05:25:49.256Z,91.28
2018-11-27T05:28:18.968Z,91.61
2018-11-27T05:30:48.259Z,91.93
2018-11-27T05:33:17.595Z,92.22
2018-11-27T05:35:48.075Z,92.65
2018-11-27T05:38:16.432Z,92.23
2018-11-27T05:40:46.171Z,92.25
2018-11-27T05:43:22.187Z,92.39
2018-11-27T05:45:51.444Z,92.54
2018-11-27T05:48:20.925Z,92.09
2018-11-27T05:50:50.423Z,92.27
2018-11-27T05:53:19.735Z,92.67
2018-11-27T05:55:49.293Z,92.13
2018-11-27T05:58:18.562Z,92.17
2018-11-27T06:00:48.136Z,92.58
2018-11-27T06:03:17.396Z,92.71
2018-11-27T06:05:46.666Z,92.24
2018-11-27T06:08:15.859Z,92.58
2018-11-27T06:10:45.347Z,92.38
2018-11-27T06:13:14.615Z,92.37
2018-11-27T06:15:43.909Z,92.43
2018-11-27T06:18:13.448Z,92.59
2018-11-27T06:20:42.726Z,92.51
2018-11-27T06:23:12.270Z,92.24
2018-11-27T06:25:41.206Z,92.85
2018-11-27T06:28:10.653Z,92.36
2018-11-27T06:30:39.937Z,92.65
2018-11-27T06:33:09.557Z,92.46
2018-11-27T06:35:47.100Z,92.44
2018-11-27T06:38:16.432Z,92.26
2018-11-27T06:40:52.116Z,92.21
2018-11-27T06:43:21.682Z,91.94
2018-11-27T06:45:50.968Z,91.95
2018-11-27T06:48:20.543Z,92.17
2018-11-27T06:50:49.821Z,91.89
2018-11-27T06:53:19.392Z,92.16
2018-11-27T06:55:48.667Z,92.50
2018-11-27T06:58:17.926Z,92.57
2018-11-27T07:00:47.208Z,92.43
2018-11-27T07:03:16.856Z,92.64
2018-11-27T07:05:46.172Z,92.72
2018-11-27T07:08:15.755Z,92.65
2018-11-27T07:10:45.020Z,92.39
2018-11-27T07:13:14.404Z,92.46
2018-11-27T07:15:43.672Z,92.57
2018-11-27T07:18:12.960Z,92.57
2018-11-27T07:20:42.513Z,92.86
2018-11-27T07:23:12.075Z,93.35
2018-11-27T07:25:41.510Z,93.18
2018-11-27T07:28:10.779Z,93.54
2018-11-27T07:30:40.248Z,93.54
2018-11-27T07:33:09.837Z,93.63
2018-11-27T07:35:39.583Z,93.28
2018-11-27T07:38:09.044Z,93.07
2018-11-27T07:40:38.376Z,93.19
2018-11-27T07:43:07.603Z,93.25
2018-11-27T07:45:36.880Z,93.27
2018-11-27T07:48:05.811Z,93.27
2018-11-27T07:50:35.637Z,92.76
2018-11-27T07:53:04.468Z,93.03
2018-11-27T07:55:33.508Z,92.88
2018-11-27T07:58:02.776Z,93.38
2018-11-27T08:00:32.086Z,93.38
2018-11-27T08:03:01.629Z,93.65
2018-11-27T08:05:30.447Z,92.96
2018-11-27T08:08:00.248Z,93.68
2018-11-27T08:10:29.749Z,93.29
2018-11-27T08:12:58.970Z,93.74
2018-11-27T08:15:28.703Z,92.78
2018-11-27T08:17:57.970Z,93.11
2018-11-27T08:20:26.965Z,93.45
2018-11-27T08:22:56.248Z,93.51
2018-11-27T08:25:25.731Z,93.72
2018-11-27T08:27:54.668Z,93.19
2018-11-27T08:30:23.937Z,92.89
2018-11-27T08:32:53.494Z,92.80
2018-11-27T08:35:22.817Z,93.10
2018-11-27T08:37:52.235Z,92.73
2018-11-27T08:40:21.146Z,93.70
2018-11-27T08:42:50.712Z,93.67
2018-11-27T08:45:20.012Z,93.17
2018-11-27T08:47:49.576Z,93.20
2018-11-27T08:50:18.387Z,93.33
2018-11-27T08:52:48.160Z,93.35
2018-11-27T08:55:17.559Z,92.82
2018-11-27T08:57:46.838Z,93.10
2018-11-27T09:00:16.247Z,92.57
2018-11-27T09:02:45.580Z,91.75
2018-11-27T09:05:14.582Z,91.34
2018-11-27T09:07:43.854Z,91.90
2018-11-27T09:10:12.780Z,92.19
2018-11-27T09:12:42.058Z,91.43
2018-11-27T09:15:10.760Z,91.05
2018-11-27T09:17:39.791Z,90.32
2018-11-27T09:20:08.771Z,90.49
2018-11-27T09:22:37.719Z,90.29
2018-11-27T09:25:07.199Z,90.28
2018-11-27T09:27:36.751Z,90.51
2018-11-27T09:30:05.647Z,89.93
2018-11-27T09:32:34.915Z,90.20
2018-11-27T09:35:04.632Z,90.35
2018-11-27T09:37:33.900Z,90.27
2018-11-27T09:40:07.752Z,89.93
2018-11-27T09:42:37.086Z,90.32
2018-11-27T09:45:05.787Z,89.72
2018-11-27T09:47:34.728Z,88.88
2018-11-27T09:50:04.639Z,87.56
2018-11-27T09:52:34.811Z,87.00
2018-11-27T09:55:04.603Z,87.51
2018-11-27T09:57:37.332Z,87.94
2018-11-27T10:00:06.324Z,88.05
2018-11-27T10:02:35.888Z,87.64
2018-11-27T10:05:04.880Z,87.29
2018-11-27T10:07:34.151Z,87.52
2018-11-27T10:10:03.356Z,87.33
2018-11-27T10:12:32.931Z,87.24
2018-11-27T10:15:01.960Z,87.16
2018-11-27T10:17:31.249Z,85.90
2018-11-27T10:20:00.511Z,84.26
2018-11-27T10:22:30.016Z,83.90
2018-11-27T10:24:59.283Z,83.57
2018-11-27T10:27:29.591Z,82.83
2018-11-27T10:29:59.048Z,82.77
2018-11-27T10:32:28.088Z,82.55
2018-11-27T10:34:57.347Z,81.95
2018-11-27T10:37:26.626Z,81.96
2018-11-27T10:40:02.067Z,82.29
2018-11-27T10:42:31.349Z,82.31
2018-11-27T10:45:00.912Z,82.21
2018-11-27T10:47:30.365Z,81.98
2018-11-27T10:49:59.622Z,82.29
2018-11-27T10:52:29.192Z,81.81
2018-11-27T10:54:58.462Z,80.43
2018-11-27T10:57:28.025Z,78.90
2018-11-27T10:59:57.471Z,79.51
2018-11-27T11:02:26.783Z,80.17
2018-11-27T11:04:56.131Z,80.30
2018-11-27T11:07:25.594Z,80.36
2018-11-27T11:09:55.124Z,80.80
2018-11-27T11:12:24.404Z,80.56
2018-11-27T11:14:53.967Z,80.43
2018-11-27T11:17:23.227Z,80.39
2018-11-27T11:19:52.499Z,79.92
2018-11-27T11:22:22.078Z,79.87
2018-11-27T11:24:51.354Z,79.07
2018-11-27T11:27:20.611Z,79.29
2018-11-27T11:29:50.086Z,78.97
2018-11-27T11:32:19.631Z,79.12
2018-11-27T11:34:49.208Z,79.50
2018-11-27T11:37:18.491Z,78.83
2018-11-27T11:39:48.081Z,77.85
2018-11-27T11:42:17.423Z,78.57
2018-11-27T11:44:46.736Z,78.20
2018-11-27T11:47:16.439Z,79.16
2018-11-27T11:49:45.769Z,78.50
2018-11-27T11:52:15.334Z,79.39
2018-11-27T11:54:44.612Z,80.33
2018-11-27T11:57:14.152Z,80.68
2018-11-27T11:59:43.407Z,80.63
2018-11-27T12:02:13.800Z,81.50
2018-11-27T12:04:43.016Z,81.84
2018-11-27T12:07:12.505Z,82.21
2018-11-27T12:09:41.778Z,81.93
2018-11-27T12:12:11.345Z,81.54
2018-11-27T12:14:40.609Z,82.82
2018-11-27T12:17:09.916Z,83.37
2018-11-27T12:19:39.361Z,83.74
2018-11-27T12:22:08.702Z,84.77
2018-11-27T12:24:38.296Z,85.52
2018-11-27T12:27:08.335Z,85.52
2018-11-27T12:29:37.599Z,85.30
2018-11-27T12:32:07.216Z,85.56
2018-11-27T12:34:36.511Z,85.44
2018-11-27T12:37:05.459Z,85.33
2018-11-27T12:39:34.399Z,85.22
2018-11-27T12:42:03.665Z,85.88
2018-11-27T12:44:33.244Z,86.37
2018-11-27T12:47:02.523Z,87.24
2018-11-27T12:49:31.812Z,87.67
2018-11-27T12:52:01.420Z,87.88
2018-11-27T12:54:30.405Z,87.69
2018-11-27T12:56:59.681Z,87.33
2018-11-27T12:59:29.287Z,87.06
2018-11-27T13:01:58.644Z,86.65
2018-11-27T13:04:28.438Z,86.40
2018-11-27T13:06:57.663Z,86.12
2018-11-27T13:09:26.604Z,86.05
2018-11-27T13:11:55.530Z,85.93
2018-11-27T13:14:24.812Z,85.74
2018-11-27T13:16:54.148Z,85.21
2018-11-27T13:19:24.314Z,84.89
2018-11-27T13:21:52.987Z,84.84
2018-11-27T13:24:21.987Z,84.75
2018-11-27T13:26:51.471Z,84.16
2018-11-27T13:29:21.043Z,84.12
2018-11-27T13:31:50.544Z,84.64
2018-11-27T13:34:19.827Z,84.78
2018-11-27T13:36:49.436Z,84.51
2018-11-27T13:39:28.767Z,84.43
2018-11-27T13:41:58.007Z,84.49
2018-11-27T13:44:27.616Z,83.94
2018-11-27T13:46:56.884Z,83.87
2018-11-27T13:49:26.446Z,84.08
2018-11-27T13:51:55.708Z,84.09
2018-11-27T13:54:24.987Z,84.29
2018-11-27T13:56:54.502Z,84.00
2018-11-27T13:59:23.785Z,84.36
2018-11-27T14:01:53.062Z,84.08
2018-11-27T14:04:22.753Z,84.02
2018-11-27T14:06:52.528Z,83.68
2018-11-27T14:09:21.803Z,83.99
2018-11-27T14:11:51.073Z,84.43
2018-11-27T14:14:20.903Z,84.64
2018-11-27T14:16:50.464Z,85.02
2018-11-27T14:19:20.029Z,85.47
2018-11-27T14:21:49.684Z,85.41
2018-11-27T14:24:18.966Z,86.10
2018-11-27T14:26:48.514Z,85.98
2018-11-27T14:29:17.835Z,85.72
2018-11-27T14:31:47.096Z,86.06
2018-11-27T14:34:16.656Z,86.59
2018-11-27T14:36:45.947Z,86.70
2018-11-27T14:39:16.376Z,87.30
2018-11-27T14:41:45.638Z,87.60
2018-11-27T14:44:15.399Z,87.49
2018-11-27T14:46:44.692Z,87.72
2018-11-27T14:49:13.965Z,87.71
2018-11-27T14:51:43.223Z,86.90
2018-11-27T14:54:12.795Z,87.20
2018-11-27T14:56:42.071Z,87.47
2018-11-27T14:59:11.635Z,87.27
2018-11-27T15:01:40.911Z,87.83
2018-11-27T15:04:09.834Z,87.21
2018-11-27T15:06:39.111Z,87.52
2018-11-27T15:09:08.117Z,87.62
2018-11-27T15:11:37.729Z,87.11
2018-11-27T15:14:06.666Z,87.20
2018-11-27T15:16:35.948Z,87.10
2018-11-27T15:19:07.567Z,87.27
2018-11-27T15:21:36.841Z,87.58
2018-11-27T15:24:05.831Z,87.66
2018-11-27T15:26:35.106Z,87.54
2018-11-27T15:29:05.393Z,88.24
2018-11-27T15:31:34.440Z,88.12
2018-11-27T15:34:03.627Z,88.01
2018-11-27T15:36:32.908Z,87.82
2018-11-27T15:39:02.224Z,88.10
2018-11-27T15:41:31.221Z,88.65
2018-11-27T15:44:00.483Z,88.38
2018-11-27T15:46:29.940Z,88.52
2018-11-27T15:48:58.968Z,88.45
2018-11-27T15:51:28.252Z,88.90
2018-11-27T15:53:57.864Z,88.68
2018-11-27T15:56:27.132Z,88.45
2018-11-27T15:58:56.843Z,89.00
2018-11-27T16:01:26.533Z,88.61
2018-11-27T16:03:56.032Z,88.80
2018-11-27T16:06:24.972Z,89.23
2018-11-27T16:08:54.265Z,89.21
2018-11-27T16:11:24.009Z,89.16
2018-11-27T16:13:55.354Z,89.16
2018-11-27T16:16:22.515Z,89.72
2018-11-27T16:18:51.944Z,89.50
2018-11-27T16:21:21.232Z,89.12
2018-11-27T16:23:50.505Z,89.00
2018-11-27T16:26:20.140Z,89.47
2018-11-27T16:28:49.692Z,89.95
2018-11-27T16:31:19.259Z,90.35
2018-11-27T16:33:48.527Z,90.52
2018-11-27T16:36:17.751Z,90.65
2018-11-27T16:38:47.063Z,90.87
2018-11-27T16:41:16.323Z,91.41
2018-11-27T16:43:45.902Z,91.55
2018-11-27T16:46:15.470Z,91.63
2018-11-27T16:48:45.032Z,91.87
2018-11-27T16:51:14.339Z,92.05
2018-11-27T16:53:43.895Z,91.66
2018-11-27T16:56:13.349Z,91.72
2018-11-27T16:58:42.919Z,91.95
2018-11-27T17:01:12.216Z,92.30
2018-11-27T17:03:41.478Z,92.47
2018-11-27T17:06:11.087Z,92.33
2018-11-27T17:08:40.372Z,92.18
2018-11-27T17:11:09.921Z,92.08
2018-11-27T17:13:39.187Z,91.79
2018-11-27T17:16:08.447Z,91.62
2018-11-27T17:18:37.974Z,91.58
2018-11-27T17:21:07.214Z,91.20
2018-11-27T17:23:37.759Z,91.61
2018-11-27T17:26:06.718Z,91.63
2018-11-27T17:28:36.165Z,92.07
2018-11-27T17:31:05.991Z,92.21
2018-11-27T17:33:35.262Z,92.74
2018-11-27T17:36:04.200Z,92.60
2018-11-27T17:38:33.504Z,92.76
2018-11-27T17:41:02.860Z,93.13
2018-11-27T17:43:32.149Z,93.69
2018-11-27T17:46:01.426Z,93.69
2018-11-27T17:48:30.744Z,93.37
2018-11-27T17:50:59.892Z,93.71
2018-11-27T17:53:29.161Z,93.31
2018-11-27T17:55:58.449Z,93.61
2018-11-27T17:58:28.052Z,93.16
2018-11-27T18:00:57.347Z,93.62
2018-11-27T18:03:27.068Z,93.65
2018-11-27T18:05:56.032Z,93.63
2018-11-27T18:08:25.288Z,93.55
2018-11-27T18:10:54.567Z,93.82
2018-11-27T18:13:23.730Z,93.73
2018-11-27T18:15:53.219Z,93.43
2018-11-27T18:18:22.510Z,93.79
2018-11-27T18:20:52.180Z,93.64
2018-11-27T18:23:21.455Z,94.23
2018-11-27T18:25:51.204Z,94.48
2018-11-27T18:28:20.771Z,93.94
2018-11-27T18:30:50.303Z,94.44
2018-11-27T18:33:19.743Z,94.40
2018-11-27T18:35:49.162Z,93.89
2018-11-27T18:38:18.281Z,93.77
2018-11-27T18:40:47.558Z,93.81
2018-11-27T18:43:17.128Z,93.94
2018-11-27T18:45:46.077Z,93.64
2018-11-27T18:48:15.636Z,93.76
2018-11-27T18:50:45.185Z,93.68
2018-11-27T18:53:14.456Z,94.00
2018-11-27T18:55:44.508Z,94.14
2018-11-27T18:58:14.070Z,94.22
2018-11-27T19:00:43.543Z,93.73
2018-11-27T19:03:13.287Z,94.03
2018-11-27T19:05:42.616Z,93.83
2018-11-27T19:08:12.474Z,93.83
2018-11-27T19:10:42.035Z,93.77
2018-11-27T19:13:11.619Z,93.28
2018-11-27T19:15:41.187Z,94.15
2018-11-27T19:18:10.114Z,93.63
2018-11-27T19:20:39.526Z,94.05
2018-11-27T19:23:08.556Z,94.02
2018-11-27T19:25:38.319Z,93.89
2018-11-27T19:28:07.579Z,93.57
2018-11-27T19:30:37.162Z,93.75
2018-11-27T19:33:06.440Z,93.67
2018-11-27T19:35:35.721Z,93.46
2018-11-27T19:38:06.017Z,93.41
2018-11-27T19:40:35.291Z,93.52
2018-11-27T19:43:04.460Z,93.07
2018-11-27T19:45:33.403Z,93.12
2018-11-27T19:48:02.444Z,92.71
2018-11-27T19:50:32.714Z,93.45
2018-11-27T19:53:01.979Z,93.14
2018-11-27T19:55:31.436Z,93.18
2018-11-27T19:58:00.711Z,92.95
2018-11-27T20:00:30.286Z,92.49
2018-11-27T20:03:00.777Z,92.82
2018-11-27T20:05:30.277Z,93.07
2018-11-27T20:07:59.715Z,92.96
2018-11-27T20:10:29.299Z,92.39
2018-11-27T20:12:58.576Z,93.12
2018-11-27T20:15:27.609Z,93.06
2018-11-27T20:17:56.543Z,92.87
2018-11-27T20:20:25.612Z,93.08
2018-11-27T20:22:54.889Z,93.59
2018-11-27T20:25:25.071Z,93.99
2018-11-27T20:27:54.415Z,94.28
2018-11-27T20:30:23.648Z,94.39
2018-11-27T20:32:53.388Z,93.86
2018-11-27T20:35:22.807Z,94.44
2018-11-27T20:37:52.367Z,94.03
2018-11-27T20:40:21.432Z,94.10
2018-11-27T20:42:50.708Z,94.44
2018-11-27T20:45:19.873Z,94.46
2018-11-27T20:47:48.579Z,94.50
2018-11-27T20:50:17.401Z,95.13
2018-11-27T20:52:46.133Z,94.86
2018-11-27T20:55:15.473Z,94.75
2018-11-27T20:57:44.503Z,94.48
2018-11-27T21:00:13.345Z,94.68
2018-11-27T21:02:42.029Z,94.21
2018-11-27T21:05:11.521Z,94.75
2018-11-27T21:07:40.795Z,94.58
2018-11-27T21:10:10.105Z,95.08
2018-11-27T21:12:39.759Z,94.82
2018-11-27T21:15:08.807Z,94.45
2018-11-27T21:17:37.847Z,94.17
2018-11-27T21:20:07.184Z,94.26
2018-11-27T21:22:36.207Z,94.60
2018-11-27T21:25:06.580Z,94.41
2018-11-27T21:27:35.612Z,94.06
2018-11-27T21:30:04.315Z,94.31
2018-11-27T21:32:33.790Z,94.01
2018-11-27T21:35:03.047Z,93.73
2018-11-27T21:37:32.620Z,93.78
2018-11-27T21:40:01.890Z,94.23
2018-11-27T21:42:31.636Z,94.30
2018-11-27T21:45:01.008Z,94.27
2018-11-27T21:47:30.648Z,94.47
2018-11-27T21:49:59.585Z,93.81
2018-11-27T21:52:28.532Z,94.17
2018-11-27T21:54:57.804Z,94.27
2018-11-27T21:57:27.126Z,94.20
2018-11-27T21:59:56.635Z,94.03
2018-11-27T22:02:25.916Z,94.75
2018-11-27T22:04:55.475Z,94.63
2018-11-27T22:07:24.423Z,94.62
2018-11-27T22:09:53.447Z,94.06
2018-11-27T22:12:22.940Z,94.33
2018-11-27T22:14:52.233Z,94.46
2018-11-27T22:17:21.623Z,94.37
2018-11-27T22:19:50.917Z,93.67
2018-11-27T22:22:22.673Z,94.17
2018-11-27T22:24:51.939Z,94.58
2018-11-27T22:27:20.892Z,94.50
2018-11-27T22:29:50.177Z,94.36
2018-11-27T22:32:19.744Z,94.28
2018-11-27T22:34:49.011Z,94.73
2018-11-27T22:37:18.288Z,94.19
2018-11-27T22:39:47.810Z,93.80
2018-11-27T22:42:17.020Z,93.65
2018-11-27T22:44:46.591Z,93.74
2018-11-27T22:47:15.673Z,93.56
2018-11-27T22:49:44.939Z,93.51
2018-11-27T22:52:13.887Z,93.94
2018-11-27T22:54:43.759Z,93.41
2018-11-27T22:57:13.040Z,93.62
2018-11-27T22:59:42.344Z,93.26
2018-11-27T23:02:11.876Z,93.58
2018-11-27T23:04:40.828Z,92.93
2018-11-27T23:07:10.596Z,93.17
2018-11-27T23:09:49.268Z,93.41
2018-11-27T23:12:18.871Z,93.04
2018-11-27T23:14:47.821Z,93.41
2018-11-27T23:17:17.102Z,92.91
2018-11-27T23:19:46.111Z,92.91
2018-11-27T23:22:15.899Z,92.81
2018-11-27T23:24:45.172Z,92.75
2018-11-27T23:27:14.188Z,92.81
2018-11-27T23:29:43.748Z,92.92
2018-11-27T23:32:13.137Z,93.01
2018-11-27T23:34:42.708Z,92.67
2018-11-27T23:37:12.266Z,92.16
2018-11-27T23:39:42.029Z,92.47
2018-11-27T23:42:11.295Z,92.26
2018-11-27T23:44:40.920Z,92.08
2018-11-27T23:47:10.951Z,91.71
2018-11-27T23:49:39.955Z,91.55
2018-11-27T23:52:09.219Z,92.02
2018-11-27T23:54:38.700Z,92.14
2018-11-27T23:57:07.977Z,92.02
2018-11-27T23:59:37.043Z,91.46
